Time;durP1;ratioP1;P1;durP2;ratioP2;P2;SDS_P1;SDS_P2;PMS_P1;PMS_P2;Temp;Humidity;BMP_temperature;BMP_pressure;BME280_temperature;BME280_humidity;BME280_pressure;Samples;Min_cycle;Max_cycle;Signal;HPM_P1;HPM_P2
2021/07/29 00:01:13;;;;;;;;;;;;;;;28.23;42.25;97279.91;5014229;28;1476;-93
2021/07/29 00:03:38;;;;;;;;;;;;;;;28.51;41.94;97288.75;5035410;28;1804;-94
2021/07/29 00:06:04;;;;;;;;;;;;;;;28.33;42.23;97280.72;5019856;28;1450;-94
2021/07/29 00:08:32;;;;;;;;;;;;;;;28.32;42.14;97279.06;5028003;28;1615;-93
2021/07/29 00:10:58;;;;;;;;;;;;;;;28.29;42.23;97279.31;5029616;28;1894;-93
2021/07/29 00:13:23;;;;;;;;;;;;;;;28.47;41.77;97274.94;5029335;28;1418;-94
2021/07/29 00:15:52;;;;;;;;;;;;;;;28.48;41.88;97281.94;5018730;28;1387;-94
2021/07/29 00:20:43;;;;;;;;;;;;;;;28.32;42.28;97271.09;5028997;28;1070;-94
2021/07/29 00:23:09;;;;;;;;;;;;;;;28.36;41.94;97270.69;5003576;28;1334;-94
2021/07/29 00:25:34;;;;;;;;;;;;;;;28.50;41.79;97263.22;5030410;28;1636;-94
2021/07/29 00:28:00;;;;;;;;;;;;;;;28.42;41.99;97257.78;5016235;28;1456;-94
2021/07/29 00:30:25;;;;;;;;;;;;;;;28.32;42.01;97260.50;5016136;28;1894;-93
2021/07/29 00:32:51;;;;;;;;;;;;;;;28.38;41.80;97269.69;5018692;28;1432;-93
2021/07/29 00:35:16;;;;;;;;;;;;;;;28.44;41.93;97272.59;5031456;28;1719;-94
2021/07/29 00:37:42;;;;;;;;;;;;;;;28.40;41.98;97265.91;5014525;28;1174;-94
2021/07/29 00:40:07;;;;;;;;;;;;;;;28.34;42.10;97266.47;5007206;28;1699;-94
2021/07/29 00:42:32;;;;;;;;;;;;;;;28.54;41.63;97272.56;5006025;28;1304;-95
2021/07/29 00:44:58;;;;;;;;;;;;;;;28.30;42.39;97263.28;5020943;28;1369;-94
2021/07/29 00:47:23;;;;;;;;;;;;;;;28.39;42.16;97274.00;5006638;28;1084;-94
2021/07/29 00:49:48;;;;;;;;;;;;;;;28.14;42.64;97272.81;5001031;28;1976;-94
2021/07/29 00:52:13;;;;;;;;;;;;;;;28.29;42.31;97274.88;5020724;28;1136;-94
2021/07/29 00:54:39;;;;;;;;;;;;;;;28.32;42.25;97271.09;5004383;28;1275;-94
2021/07/29 00:57:04;;;;;;;;;;;;;;;28.24;42.30;97278.91;5009916;28;1573;-94
2021/07/29 00:59:29;;;;;;;;;;;;;;;28.39;42.14;97274.84;5012966;28;1224;-94
2021/07/29 01:01:54;;;;;;;;;;;;;;;28.19;42.50;97267.91;5033254;28;1181;-94
2021/07/29 01:04:20;;;;;;;;;;;;;;;28.21;42.17;97265.97;5018293;28;1299;-93
2021/07/29 01:06:45;;;;;;;;;;;;;;;28.19;42.51;97267.91;5009770;28;1301;-94
2021/07/29 01:09:11;;;;;;;;;;;;;;;28.22;42.25;97264.97;5005012;28;1359;-93
2021/07/29 01:11:37;;;;;;;;;;;;;;;28.32;42.12;97265.81;5020214;28;1894;-94
2021/07/29 01:14:02;;;;;;;;;;;;;;;28.43;41.93;97264.75;5009582;28;1679;-94
2021/07/29 01:16:27;;;;;;;;;;;;;;;28.28;41.96;97267.88;5034832;28;1217;-94
2021/07/29 01:18:53;;;;;;;;;;;;;;;28.32;42.20;97268.44;5001551;28;1306;-93
2021/07/29 01:21:18;;;;;;;;;;;;;;;28.26;42.26;97275.13;5004525;28;1327;-94
2021/07/29 01:23:44;;;;;;;;;;;;;;;28.30;42.14;97275.72;5018729;28;1581;-93
2021/07/29 01:26:09;;;;;;;;;;;;;;;28.48;41.83;97281.94;5006186;28;1405;-93
2021/07/29 01:28:37;;;;;;;;;;;;;;;28.12;42.58;97280.88;5026156;28;1113;-94
2021/07/29 01:31:03;;;;;;;;;;;;;;;28.23;42.05;97279.91;5002142;28;1898;-94
2021/07/29 01:33:28;;;;;;;;;;;;;;;28.29;42.17;97272.25;5018228;28;1217;-93
2021/07/29 01:35:53;;;;;;;;;;;;;;;28.15;42.52;97271.84;5034827;28;1302;-94
2021/07/29 01:38:18;;;;;;;;;;;;;;;28.23;42.47;97270.13;5034606;28;1604;-94
2021/07/29 01:40:44;;;;;;;;;;;;;;;28.23;42.36;97254.22;5023140;28;1373;-94
2021/07/29 01:43:09;;;;;;;;;;;;;;;28.19;42.55;97259.94;5003299;28;1596;-94
2021/07/29 01:45:34;;;;;;;;;;;;;;;28.21;42.42;97260.66;5015050;28;1346;-94
2021/07/29 01:48:00;;;;;;;;;;;;;;;28.47;41.76;97256.38;5029944;28;1178;-94
2021/07/29 01:50:25;;;;;;;;;;;;;;;28.11;42.49;97252.69;5001714;28;2013;-94
2021/07/29 01:52:50;;;;;;;;;;;;;;;28.29;42.31;97256.31;5005318;28;1354;-94
2021/07/29 01:55:15;;;;;;;;;;;;;;;28.44;41.92;97256.69;5016783;28;1579;-94
2021/07/29 01:57:40;;;;;;;;;;;;;;;28.30;42.02;97257.16;5012342;28;1295;-93
2021/07/29 02:00:06;;;;;;;;;;;;;;;27.96;42.94;97267.38;4998016;28;1591;-96
2021/07/29 02:02:31;;;;;;;;;;;;;;;28.21;42.30;97261.50;5000780;28;1274;-93
2021/07/29 02:04:57;;;;;;;;;;;;;;;28.33;41.83;97254.19;5004368;28;1374;-94
2021/07/29 02:07:22;;;;;;;;;;;;;;;28.23;42.18;97264.00;5016823;28;1169;-94
2021/07/29 02:09:47;;;;;;;;;;;;;;;28.42;41.87;97263.94;5015352;28;1953;-94
2021/07/29 02:12:12;;;;;;;;;;;;;;;28.13;42.25;97261.38;4999025;28;1510;-94
2021/07/29 02:14:38;;;;;;;;;;;;;;;28.16;42.24;97263.72;4997772;28;1574;-94
2021/07/29 02:17:03;;;;;;;;;;;;;;;28.27;42.24;97260.06;5019880;28;1606;-94
2021/07/29 02:19:28;;;;;;;;;;;;;;;28.17;42.62;97269.88;5027787;28;1464;-95
2021/07/29 02:21:53;;;;;;;;;;;;;;;28.24;42.03;97268.31;5018860;28;1081;-95
2021/07/29 02:24:18;;;;;;;;;;;;;;;28.33;42.00;97272.78;4997451;28;1303;-94
2021/07/29 02:26:44;;;;;;;;;;;;;;;28.41;41.63;97274.69;5003712;28;1610;-94
2021/07/29 02:29:09;;;;;;;;;;;;;;;28.29;41.98;97272.25;5015067;28;1756;-94
2021/07/29 02:31:35;;;;;;;;;;;;;;;28.26;42.35;97269.81;5020349;28;1895;-94
2021/07/29 02:34:00;;;;;;;;;;;;;;;28.07;42.79;97264.59;4999526;28;1354;-94
2021/07/29 02:36:25;;;;;;;;;;;;;;;28.27;42.37;97268.84;5019587;28;1225;-95
2021/07/29 02:38:50;;;;;;;;;;;;;;;28.33;42.10;97270.94;5028650;28;1580;-95
2021/07/29 02:41:15;;;;;;;;;;;;;;;28.28;42.12;97267.03;5022447;28;1177;-94
2021/07/29 02:43:41;;;;;;;;;;;;;;;28.42;41.61;97271.88;5002461;28;1349;-93
2021/07/29 02:46:06;;;;;;;;;;;;;;;28.35;41.92;97273.44;5006361;28;1286;-94
2021/07/29 02:48:31;;;;;;;;;;;;;;;28.26;42.27;97271.63;5004595;28;1323;-94
2021/07/29 02:50:56;;;;;;;;;;;;;;;28.27;42.33;97268.84;5032848;28;1973;-94
2021/07/29 02:53:22;;;;;;;;;;;;;;;28.14;42.47;97270.16;5037847;28;1229;-95
2021/07/29 02:55:47;;;;;;;;;;;;;;;28.19;42.14;97268.72;5000437;28;1584;-94
2021/07/29 02:58:12;;;;;;;;;;;;;;;28.34;41.96;97275.28;5020011;28;1207;-95
2021/07/29 03:00:37;;;;;;;;;;;;;;;28.18;42.40;97276.84;5021125;28;1351;-94
2021/07/29 03:03:03;;;;;;;;;;;;;;;28.25;42.20;97273.47;4992583;28;1521;-94
2021/07/29 03:05:28;;;;;;;;;;;;;;;28.35;41.73;97273.44;4998569;28;1790;-94
2021/07/29 03:07:53;;;;;;;;;;;;;;;28.34;42.08;97277.09;5005001;28;1206;-94
2021/07/29 03:10:18;;;;;;;;;;;;;;;28.40;41.61;97276.50;5018092;28;1902;-95
2021/07/29 03:12:43;;;;;;;;;;;;;;;28.33;41.86;97278.06;5003728;28;1213;-94
2021/07/29 03:15:09;;;;;;;;;;;;;;;28.12;42.20;97283.53;5019921;28;1421;-94
2021/07/29 03:17:34;;;;;;;;;;;;;;;28.35;41.72;97276.09;5003473;28;1384;-94
2021/07/29 03:19:59;;;;;;;;;;;;;;;28.21;42.13;97268.59;5003172;28;1637;-94
2021/07/29 03:22:25;;;;;;;;;;;;;;;28.28;41.99;97267.03;5005003;28;1471;-94
2021/07/29 03:24:50;;;;;;;;;;;;;;;28.19;42.11;97275.84;5022125;28;1352;-94
2021/07/29 03:27:16;;;;;;;;;;;;;;;28.29;42.08;97271.38;5022702;28;1573;-94
2021/07/29 03:29:41;;;;;;;;;;;;;;;28.25;42.28;97272.63;5038389;28;1953;-94
2021/07/29 03:32:06;;;;;;;;;;;;;;;28.21;41.96;97269.44;5006389;28;1217;-94
2021/07/29 03:34:31;;;;;;;;;;;;;;;28.20;42.11;97281.03;5024192;28;1572;-94
2021/07/29 03:36:57;;;;;;;;;;;;;;;28.23;42.01;97279.91;5027829;28;1260;-94
2021/07/29 03:39:22;;;;;;;;;;;;;;;28.27;42.09;97279.44;5022981;28;1332;-94
2021/07/29 03:41:47;;;;;;;;;;;;;;;28.42;41.78;97290.47;5003859;28;1656;-94
2021/07/29 03:44:12;;;;;;;;;;;;;;;28.34;41.83;97282.41;5023648;28;1404;-94
2021/07/29 03:46:38;;;;;;;;;;;;;;;28.28;42.04;97288.22;5024712;28;1301;-93
2021/07/29 03:49:03;;;;;;;;;;;;;;;28.32;41.90;97284.34;5030039;28;1255;-93
2021/07/29 03:51:29;;;;;;;;;;;;;;;28.24;42.04;97286.88;5001730;28;1906;-93
2021/07/29 03:53:54;;;;;;;;;;;;;;;28.21;42.06;97276.56;5001395;28;1450;-93
2021/07/29 03:56:19;;;;;;;;;;;;;;;28.38;41.99;97280.31;5018843;28;1597;-94
2021/07/29 03:58:44;;;;;;;;;;;;;;;28.20;42.15;97278.38;5034255;28;1417;-93
2021/07/29 04:01:11;;;;;;;;;;;;;;;28.14;42.15;97280.78;5021636;28;1228;-93
2021/07/29 04:03:36;;;;;;;;;;;;;;;28.33;42.05;97286.88;5002381;28;1527;-94
2021/07/29 04:06:01;;;;;;;;;;;;;;;28.27;42.25;97278.63;5023071;28;1583;-93
2021/07/29 04:08:26;;;;;;;;;;;;;;;28.31;41.81;97278.22;5002163;28;1259;-93
2021/07/29 04:10:52;;;;;;;;;;;;;;;28.07;42.28;97286.63;5020076;28;1973;-92
2021/07/29 04:13:18;;;;;;;;;;;;;;;28.16;42.26;97290.25;5025343;28;1381;-94
2021/07/29 04:15:43;;;;;;;;;;;;;;;28.16;42.04;97286.75;5015092;28;1239;-94
2021/07/29 04:18:08;;;;;;;;;;;;;;;28.15;42.14;97288.56;5005762;28;1106;-94
2021/07/29 04:20:34;;;;;;;;;;;;;;;28.16;42.15;97287.59;5017728;28;1577;-94
2021/07/29 04:22:59;;;;;;;;;;;;;;;28.12;42.52;97296.78;5020247;28;1222;-93
2021/07/29 04:25:24;;;;;;;;;;;;;;;28.16;42.35;97294.72;4994782;28;1601;-94
2021/07/29 04:27:49;;;;;;;;;;;;;;;28.25;42.02;97293.84;5023059;28;1307;-94
2021/07/29 04:30:15;;;;;;;;;;;;;;;28.38;41.74;97299.69;5036862;28;1965;-95
2021/07/29 04:32:40;;;;;;;;;;;;;;;28.30;41.88;97299.59;5007582;28;1275;-94
2021/07/29 04:35:06;;;;;;;;;;;;;;;28.25;42.04;97304.44;5024763;28;1587;-94
2021/07/29 04:37:31;;;;;;;;;;;;;;;28.28;41.86;97293.53;5033050;28;1245;-94
2021/07/29 04:39:56;;;;;;;;;;;;;;;28.19;42.20;97291.75;5008549;28;1284;-94
2021/07/29 04:42:21;;;;;;;;;;;;;;;28.18;42.07;97298.03;5023537;28;1936;-94
2021/07/29 04:44:47;;;;;;;;;;;;;;;28.01;42.71;97299.63;5002612;28;1363;-94
2021/07/29 04:47:15;;;;;;;;;;;;;;;28.23;41.91;97303.75;5006414;28;1307;-94
2021/07/29 04:49:40;;;;;;;;;;;;;;;28.17;41.96;97304.31;5021600;28;1903;-94
2021/07/29 04:52:05;;;;;;;;;;;;;;;28.19;42.12;97300.53;5022568;28;1253;-94
2021/07/29 04:54:31;;;;;;;;;;;;;;;28.17;42.36;97307.81;5022719;28;1616;-94
2021/07/29 04:56:56;;;;;;;;;;;;;;;28.27;41.77;97313.91;5024132;28;1752;-94
2021/07/29 04:59:21;;;;;;;;;;;;;;;28.04;42.44;97307.28;5018205;28;1220;-94
2021/07/29 05:01:47;;;;;;;;;;;;;;;28.13;42.16;97306.44;5014764;28;1334;-94
2021/07/29 05:04:12;;;;;;;;;;;;;;;28.14;42.19;97308.13;5024207;28;1844;-94
2021/07/29 05:06:37;;;;;;;;;;;;;;;28.24;41.81;97314.22;5021600;28;1544;-94
2021/07/29 05:09:03;;;;;;;;;;;;;;;28.22;42.01;97318.00;5001373;28;1565;-94
2021/07/29 05:11:29;;;;;;;;;;;;;;;28.26;42.20;97317.56;4995025;28;1886;-94
2021/07/29 05:13:54;;;;;;;;;;;;;;;28.14;42.19;97317.88;5017015;28;1760;-94
2021/07/29 05:16:19;;;;;;;;;;;;;;;28.34;41.67;97320.34;5006460;28;1299;-94
2021/07/29 05:18:45;;;;;;;;;;;;;;;28.15;42.20;97316.91;5027890;28;1232;-94
2021/07/29 05:21:10;;;;;;;;;;;;;;;28.12;42.09;97322.47;5005672;28;1311;-94
2021/07/29 05:23:35;;;;;;;;;;;;;;;28.12;42.03;97325.94;5037296;28;1403;-93
2021/07/29 05:26:01;;;;;;;;;;;;;;;28.17;42.24;97322.88;5018824;28;1690;-94
2021/07/29 05:28:26;;;;;;;;;;;;;;;28.30;41.73;97323.47;5007419;28;1494;-94
2021/07/29 05:30:54;;;;;;;;;;;;;;;28.16;42.06;97321.22;5004106;28;1895;-93
2021/07/29 05:33:19;;;;;;;;;;;;;;;28.07;42.36;97334.34;5018865;28;1218;-94
2021/07/29 05:35:45;;;;;;;;;;;;;;;28.17;42.05;97329.03;5035822;28;1191;-94
2021/07/29 05:38:10;;;;;;;;;;;;;;;28.20;42.16;97327.91;5018515;28;918;-94
2021/07/29 05:40:35;;;;;;;;;;;;;;;28.21;41.91;97326.94;5034458;28;1221;-93
2021/07/29 05:43:00;;;;;;;;;;;;;;;28.13;42.04;97335.59;5018384;28;1633;-94
2021/07/29 05:45:28;;;;;;;;;;;;;;;28.22;42.03;97323.31;5001038;28;1306;-93
2021/07/29 05:47:53;;;;;;;;;;;;;;;28.31;41.78;97330.44;5018355;28;1264;-93
2021/07/29 05:50:18;;;;;;;;;;;;;;;28.01;42.38;97324.31;5021483;28;1971;-93
2021/07/29 05:52:44;;;;;;;;;;;;;;;28.19;42.05;97326.22;5013390;28;1335;-93
2021/07/29 05:55:09;;;;;;;;;;;;;;;28.22;41.85;97334.75;5017172;28;1678;-93
2021/07/29 05:57:34;;;;;;;;;;;;;;;28.23;41.88;97330.28;5017488;28;1581;-93
2021/07/29 06:00:00;;;;;;;;;;;;;;;28.36;41.68;97330.84;5007102;28;1389;-93
2021/07/29 06:02:25;;;;;;;;;;;;;;;28.33;41.72;97328.47;5026097;28;1233;-93
2021/07/29 06:04:50;;;;;;;;;;;;;;;28.15;42.06;97325.69;5003302;28;1615;-93
2021/07/29 06:07:16;;;;;;;;;;;;;;;28.24;41.88;97330.13;5015885;28;1355;-93
2021/07/29 06:09:41;;;;;;;;;;;;;;;28.16;42.18;97318.56;5016040;28;1956;-94
2021/07/29 06:12:07;;;;;;;;;;;;;;;28.22;42.06;97325.97;5013240;28;1790;-93
2021/07/29 06:14:32;;;;;;;;;;;;;;;28.23;41.83;97339.06;5022776;28;1370;-94
2021/07/29 06:16:57;;;;;;;;;;;;;;;28.21;42.19;97329.59;5022043;28;1411;-94
2021/07/29 06:19:29;;;;;;;;;;;;;;;28.32;41.65;97324.16;5016607;28;1280;-93
2021/07/29 06:21:55;;;;;;;;;;;;;;;28.09;42.42;97328.91;5026399;28;1279;-93
2021/07/29 06:24:21;;;;;;;;;;;;;;;28.19;42.04;97328.88;4999477;28;1358;-93
2021/07/29 06:26:48;;;;;;;;;;;;;;;28.09;42.09;97324.44;5006170;28;1311;-93
2021/07/29 06:29:13;;;;;;;;;;;;;;;28.16;42.09;97323.88;5032488;28;1136;-93
2021/07/29 06:31:38;;;;;;;;;;;;;;;28.18;42.08;97325.38;5031307;28;1902;-93
2021/07/29 06:34:04;;;;;;;;;;;;;;;28.24;41.90;97330.13;5001344;28;1639;-93
2021/07/29 06:36:29;;;;;;;;;;;;;;;28.16;41.83;97331.81;5020714;28;1256;-91
2021/07/29 06:38:54;;;;;;;;;;;;;;;28.28;42.00;97330.66;5003152;28;1277;-91
2021/07/29 06:41:19;;;;;;;;;;;;;;;28.29;41.72;97332.38;5012106;28;1625;-91
2021/07/29 06:43:44;;;;;;;;;;;;;;;28.25;41.72;97336.28;5028884;28;983;-91
2021/07/29 06:46:10;;;;;;;;;;;;;;;28.03;42.47;97330.28;5000745;28;1326;-92
2021/07/29 06:48:35;;;;;;;;;;;;;;;28.18;41.92;97330.69;5010512;28;1623;-92
2021/07/29 06:51:07;;;;;;;;;;;;;;;28.13;42.19;97327.66;5011713;28;1910;-93
2021/07/29 06:53:32;;;;;;;;;;;;;;;28.30;41.63;97328.75;5052128;28;1251;-94
2021/07/29 06:55:59;;;;;;;;;;;;;;;28.05;42.19;97328.38;5050997;28;1556;-93
2021/07/29 06:58:24;;;;;;;;;;;;;;;28.33;41.54;97331.13;5052938;28;1307;-94
2021/07/29 07:00:49;;;;;;;;;;;;;;;28.28;41.91;97328.00;5054729;28;1150;-93
2021/07/29 07:03:14;;;;;;;;;;;;;;;28.21;41.77;97334.91;5052710;28;1642;-92
2021/07/29 07:05:45;;;;;;;;;;;;;;;28.20;42.05;97327.91;5056717;28;1347;-93
2021/07/29 07:08:10;;;;;;;;;;;;;;;28.04;42.16;97332.00;5054916;28;1139;-93
2021/07/29 07:10:35;;;;;;;;;;;;;;;28.09;42.21;97328.91;5054148;28;1890;-94
2021/07/29 07:13:00;;;;;;;;;;;;;;;28.08;42.28;97319.28;5055003;28;1323;-93
2021/07/29 07:15:25;;;;;;;;;;;;;;;28.15;42.02;97317.72;5043580;28;1362;-95
2021/07/29 07:17:51;;;;;;;;;;;;;;;28.22;41.69;97318.84;5053118;28;1106;-93
2021/07/29 07:20:16;;;;;;;;;;;;;;;28.07;42.12;97314.97;5052945;28;1153;-93
2021/07/29 07:22:41;;;;;;;;;;;;;;;28.08;42.23;97313.97;5053043;28;1587;-92
2021/07/29 07:25:06;;;;;;;;;;;;;;;28.09;42.37;97313.00;5034629;28;1573;-91
2021/07/29 07:27:31;;;;;;;;;;;;;;;28.08;42.13;97317.47;5018778;28;1288;-92
2021/07/29 07:29:57;;;;;;;;;;;;;;;28.18;41.92;97319.25;5023055;28;1907;-92
2021/07/29 07:32:22;;;;;;;;;;;;;;;28.17;41.89;97310.47;5025775;28;1173;-91
2021/07/29 07:34:47;;;;;;;;;;;;;;;28.21;41.85;97314.53;5012924;28;1242;-92
2021/07/29 07:37:12;;;;;;;;;;;;;;;28.12;42.25;97314.50;5035017;28;1257;-92
2021/07/29 07:39:38;;;;;;;;;;;;;;;27.93;42.63;97299.50;5011131;28;1548;-92
2021/07/29 07:42:03;;;;;;;;;;;;;;;28.15;42.14;97307.13;5008798;28;1632;-92
2021/07/29 07:44:28;;;;;;;;;;;;;;;27.96;42.54;97310.63;5027600;28;1272;-92
2021/07/29 07:46:54;;;;;;;;;;;;;;;28.03;42.31;97308.25;5027282;28;1193;-93
2021/07/29 07:49:19;;;;;;;;;;;;;;;28.12;42.04;97303.91;5043422;28;1551;-93
2021/07/29 07:51:44;;;;;;;;;;;;;;;28.09;42.42;97300.56;5044137;28;1948;-93
2021/07/29 07:54:09;;;;;;;;;;;;;;;28.33;41.60;97305.44;5015019;28;1278;-93
2021/07/29 07:56:44;;;;;;;;;;;;;;;28.11;41.97;97300.44;5013575;28;1545;-91
2021/07/29 07:59:09;;;;;;;;;;;;;;;28.17;41.91;97296.38;5024357;28;1371;-92
2021/07/29 08:01:36;;;;;;;;;;;;;;;28.17;42.12;97291.06;5034036;28;1192;-93
2021/07/29 08:04:02;;;;;;;;;;;;;;;28.18;42.07;97293.56;5043592;28;1405;-92
2021/07/29 08:06:27;;;;;;;;;;;;;;;28.07;42.11;97297.25;5041273;28;1614;-93
2021/07/29 08:08:52;;;;;;;;;;;;;;;28.24;41.55;97285.06;5035274;28;1213;-92
2021/07/29 08:11:18;;;;;;;;;;;;;;;28.22;41.94;97284.38;5038691;28;1966;-93
2021/07/29 08:13:44;;;;;;;;;;;;;;;28.07;42.35;97285.81;5049498;28;1332;-93
2021/07/29 08:16:09;;;;;;;;;;;;;;;27.96;42.41;97286.78;5042323;28;1393;-92
2021/07/29 08:18:34;;;;;;;;;;;;;;;28.14;42.22;97273.66;5004980;28;1399;-92
2021/07/29 08:20:59;;;;;;;;;;;;;;;27.98;42.41;97270.75;5037191;28;1181;-92
2021/07/29 08:23:24;;;;;;;;;;;;;;;28.24;41.83;97277.09;5047289;28;1275;-92
2021/07/29 08:25:50;;;;;;;;;;;;;;;28.19;41.99;97271.38;5038935;28;1559;-93
2021/07/29 08:28:15;;;;;;;;;;;;;;;28.29;41.50;97266.94;5016167;28;1334;-92
2021/07/29 08:30:40;;;;;;;;;;;;;;;28.14;42.00;97273.66;5038618;28;1886;-92
2021/07/29 08:33:08;;;;;;;;;;;;;;;28.16;42.00;97266.38;5047280;28;1313;-92
2021/07/29 08:35:37;;;;;;;;;;;;;;;28.22;41.96;97257.84;5047521;28;1540;-93
2021/07/29 08:38:02;;;;;;;;;;;;;;;28.20;41.70;97264.25;5037716;28;1641;-90
2021/07/29 08:40:27;;;;;;;;;;;;;;;28.03;42.11;97257.91;5049296;28;1524;-93
2021/07/29 08:42:52;;;;;;;;;;;;;;;28.23;41.82;97256.03;5051917;28;1160;-91
2021/07/29 08:45:18;;;;;;;;;;;;;;;28.06;42.24;97261.09;5048906;28;1275;-93
2021/07/29 08:47:44;;;;;;;;;;;;;;;28.13;42.01;97263.19;5047403;28;1548;-92
2021/07/29 08:50:09;;;;;;;;;;;;;;;27.96;42.67;97256.78;5046717;28;1906;-93
2021/07/29 08:52:34;;;;;;;;;;;;;;;28.15;42.01;97250.63;5043025;28;1355;-93
2021/07/29 08:54:59;;;;;;;;;;;;;;;28.05;42.04;97248.00;5025998;28;1587;-91
2021/07/29 08:57:31;;;;;;;;;;;;;;;28.18;42.08;97251.16;5024067;28;1774;-92
2021/07/29 08:59:57;;;;;;;;;;;;;;;28.21;41.96;97248.22;5032138;28;1314;-92
2021/07/29 09:02:25;;;;;;;;;;;;;;;28.01;42.29;97254.56;5028568;28;1197;-91
2021/07/29 09:05:07;;;;;;;;;;;;;;;28.21;41.99;97255.34;5018348;28;1667;-91
2021/07/29 09:07:33;;;;;;;;;;;;;;;28.29;41.60;97252.81;5034295;28;1143;-92
2021/07/29 09:09:58;;;;;;;;;;;;;;;28.00;42.34;97250.25;5013232;28;1962;-93
2021/07/29 09:12:24;;;;;;;;;;;;;;;28.26;41.84;97253.91;5045857;28;1800;-93
2021/07/29 09:14:49;;;;;;;;;;;;;;;28.26;41.61;97248.59;5023347;28;1386;-92
2021/07/29 09:17:15;;;;;;;;;;;;;;;27.93;42.68;97241.19;5015929;28;1189;-93
2021/07/29 09:19:46;;;;;;;;;;;;;;;28.27;41.63;97249.44;5007445;28;1572;-93
2021/07/29 09:22:11;;;;;;;;;;;;;;;28.17;42.20;97238.88;5043930;28;1131;-92
2021/07/29 09:25:02;;;;;;;;;;;;;;;28.08;42.30;97235.28;5037940;28;1273;-93
2021/07/29 09:27:39;;;;;;;;;;;;;;;28.02;42.21;97243.81;5044068;28;1688;-92
2021/07/29 09:30:08;;;;;;;;;;;;;;;27.92;42.47;97236.88;5009941;28;1911;-92
2021/07/29 09:32:33;;;;;;;;;;;;;;;28.04;42.17;97246.31;5009067;28;1327;-92
2021/07/29 09:34:58;;;;;;;;;;;;;;;28.26;41.60;97243.31;5024291;28;1562;-93
2021/07/29 09:37:23;;;;;;;;;;;;;;;28.11;41.94;97239.44;5008137;28;1341;-92
2021/07/29 09:39:59;;;;;;;;;;;;;;;28.14;42.08;97244.47;5029227;28;1574;-93
2021/07/29 09:42:24;;;;;;;;;;;;;;;28.12;42.32;97240.28;5029067;28;1693;-93
2021/07/29 09:44:50;;;;;;;;;;;;;;;28.12;42.28;97241.13;5013274;28;1362;-93
2021/07/29 09:47:22;;;;;;;;;;;;;;;28.09;41.96;97247.56;5031031;28;1178;-92
2021/07/29 09:49:48;;;;;;;;;;;;;;;28.11;42.10;97244.75;5008603;28;1969;-92
2021/07/29 09:52:13;;;;;;;;;;;;;;;28.24;41.72;97236.50;5027131;28;1122;-92
2021/07/29 09:54:39;;;;;;;;;;;;;;;27.99;42.12;97241.44;5010683;28;1377;-92
2021/07/29 09:57:05;;;;;;;;;;;;;;;27.96;42.30;97231.13;5030375;28;1500;-93
2021/07/29 09:59:30;;;;;;;;;;;;;;;28.12;42.10;97229.69;5011238;28;1316;-93
2021/07/29 10:01:56;;;;;;;;;;;;;;;27.93;42.40;97231.41;5027864;28;1588;-91
2021/07/29 10:04:25;;;;;;;;;;;;;;;28.13;42.30;97220.78;5013606;28;1564;-92
2021/07/29 10:06:50;;;;;;;;;;;;;;;28.15;42.01;97224.09;5013694;28;1674;-93
2021/07/29 10:09:17;;;;;;;;;;;;;;;28.00;42.39;97229.88;5022293;28;1600;-92
2021/07/29 10:11:42;;;;;;;;;;;;;;;28.10;42.01;97232.47;5026935;28;1953;-92
2021/07/29 10:14:09;;;;;;;;;;;;;;;28.15;41.87;97230.25;5029792;28;1303;-92
2021/07/29 10:16:47;;;;;;;;;;;;;;;28.26;41.52;97230.03;5015062;28;1221;-92
2021/07/29 10:19:12;;;;;;;;;;;;;;;28.16;41.75;97231.06;5019171;28;1580;-92
2021/07/29 10:21:38;;;;;;;;;;;;;;;28.09;42.01;97236.13;5027747;28;1579;-92
2021/07/29 10:24:04;;;;;;;;;;;;;;;28.06;42.32;97234.59;5040144;28;1322;-93
2021/07/29 10:26:29;;;;;;;;;;;;;;;28.22;41.88;97228.69;5040994;28;1340;-92
2021/07/29 10:29:27;;;;;;;;;;;;;;;28.12;42.03;97233.16;5038878;28;1427;-92
2021/07/29 10:31:53;;;;;;;;;;;;;;;28.03;42.28;97218.13;4990592;28;1887;-92
2021/07/29 10:34:36;;;;;;;;;;;;;;;28.02;42.45;97232.38;5022148;28;1526;-92
2021/07/29 10:37:02;;;;;;;;;;;;;;;27.94;42.29;97224.31;5027043;28;1175;-92
2021/07/29 10:39:27;;;;;;;;;;;;;;;28.01;42.15;97226.22;5007451;28;1301;-92
2021/07/29 10:41:54;;;;;;;;;;;;;;;27.99;42.30;97230.84;5009315;28;1580;-93
2021/07/29 10:44:31;;;;;;;;;;;;;;;28.12;42.07;97229.69;5008528;28;1375;-92
2021/07/29 10:46:56;;;;;;;;;;;;;;;27.93;42.48;97230.59;5038412;28;1278;-93
2021/07/29 10:49:21;;;;;;;;;;;;;;;28.09;41.85;97226.34;5042161;28;1563;-93
2021/07/29 10:52:05;;;;;;;;;;;;;;;27.93;42.52;97220.81;5033565;28;1890;-93
2021/07/29 10:54:30;;;;;;;;;;;;;;;28.25;41.58;97232.84;5027836;28;1302;-93
2021/07/29 10:56:56;;;;;;;;;;;;;;;28.10;41.99;97221.88;5010081;28;1630;-92
2021/07/29 10:59:21;;;;;;;;;;;;;;;28.10;42.18;97220.06;5026688;28;1232;-92
2021/07/29 11:01:47;;;;;;;;;;;;;;;28.15;42.12;97213.50;5010313;28;1205;-93
2021/07/29 11:04:13;;;;;;;;;;;;;;;28.10;42.24;97211.28;5035633;28;1314;-92
2021/07/29 11:06:40;;;;;;;;;;;;;;;27.94;42.55;97211.06;5045253;28;1805;-92
2021/07/29 11:09:09;;;;;;;;;;;;;;;28.17;41.67;97212.38;5021202;28;1277;-92
2021/07/29 11:11:37;;;;;;;;;;;;;;;28.13;41.97;97204.88;5052615;28;1890;-91
2021/07/29 11:14:03;;;;;;;;;;;;;;;28.08;42.10;97195.50;5038357;28;1332;-93
2021/07/29 11:16:28;;;;;;;;;;;;;;;28.05;42.19;97189.69;5030613;28;1177;-92
2021/07/29 11:19:00;;;;;;;;;;;;;;;28.05;42.13;97193.16;5010784;28;1582;-92
2021/07/29 11:21:25;;;;;;;;;;;;;;;28.17;41.95;97185.00;5023624;28;1312;-93
2021/07/29 11:23:50;;;;;;;;;;;;;;;28.13;41.91;97181.84;5035458;28;1537;-92
2021/07/29 11:26:16;;;;;;;;;;;;;;;28.04;42.32;97175.59;5032818;28;1454;-92
2021/07/29 11:28:41;;;;;;;;;;;;;;;28.19;41.74;97173.28;5004605;28;1241;-92
2021/07/29 11:31:06;;;;;;;;;;;;;;;28.25;41.90;97172.69;5026737;28;1890;-93
2021/07/29 11:33:31;;;;;;;;;;;;;;;28.18;41.66;97171.59;5026123;28;1121;-92
2021/07/29 11:36:09;;;;;;;;;;;;;;;28.08;41.91;97168.16;5021371;28;1601;-92
2021/07/29 11:38:34;;;;;;;;;;;;;;;27.93;42.46;97157.22;5005845;28;1237;-92
2021/07/29 11:41:00;;;;;;;;;;;;;;;28.18;41.89;97160.16;5020292;28;1539;-92
2021/07/29 11:43:28;;;;;;;;;;;;;;;28.14;41.95;97166.75;5002866;28;1327;-91
2021/07/29 11:46:02;;;;;;;;;;;;;;;28.20;41.92;97158.19;5007597;28;1416;-92
2021/07/29 11:48:28;;;;;;;;;;;;;;;28.30;41.61;97161.69;5011496;28;1272;-92
2021/07/29 11:50:53;;;;;;;;;;;;;;;28.12;41.96;97158.94;5024865;28;1985;-92
2021/07/29 11:53:19;;;;;;;;;;;;;;;28.08;41.91;97163.72;5006057;28;1277;-92
2021/07/29 11:55:54;;;;;;;;;;;;;;;28.00;42.36;97166.25;5020337;28;1628;-91
2021/07/29 11:58:19;;;;;;;;;;;;;;;28.35;41.46;97162.06;5023067;28;1343;-92
2021/07/29 12:00:46;;;;;;;;;;;;;;;28.22;41.53;97170.34;5024648;28;1260;-92
2021/07/29 12:03:11;;;;;;;;;;;;;;;28.06;42.17;97163.03;5028500;28;1154;-92
2021/07/29 12:05:38;;;;;;;;;;;;;;;27.96;42.42;97170.16;5005678;28;1583;-92
2021/07/29 12:08:04;;;;;;;;;;;;;;;28.13;41.88;97167.75;5026828;28;1192;-91
2021/07/29 12:10:29;;;;;;;;;;;;;;;28.15;41.82;97160.47;5010390;28;1911;-92
2021/07/29 12:12:55;;;;;;;;;;;;;;;28.01;42.10;97149.38;5033281;28;1542;-93
2021/07/29 12:15:20;;;;;;;;;;;;;;;28.03;42.00;97154.50;5042349;28;1248;-92
2021/07/29 12:17:45;;;;;;;;;;;;;;;28.12;42.14;97156.28;5030395;28;1355;-92
2021/07/29 12:20:12;;;;;;;;;;;;;;;28.24;41.67;97155.13;5006787;28;1529;-93
2021/07/29 12:22:38;;;;;;;;;;;;;;;28.05;42.36;97153.41;5023285;28;1585;-91
2021/07/29 12:25:05;;;;;;;;;;;;;;;27.90;42.25;97157.50;5011317;28;1692;-91
2021/07/29 12:27:43;;;;;;;;;;;;;;;28.23;41.64;97149.97;5015189;28;1746;-91
2021/07/29 12:30:26;;;;;;;;;;;;;;;28.25;41.76;97150.66;5040979;28;1891;-93
2021/07/29 12:33:02;;;;;;;;;;;;;;;28.56;41.02;97149.38;5053755;28;1224;-94
2021/07/29 12:35:28;;;;;;;;;;;;;;;28.78;40.54;97132.19;5049599;28;1508;-93
2021/07/29 12:37:59;;;;;;;;;;;;;;;28.61;40.82;97141.81;5057751;28;1152;-93
2021/07/29 12:40:25;;;;;;;;;;;;;;;28.70;40.66;97141.91;5035703;28;1552;-93
2021/07/29 12:42:50;;;;;;;;;;;;;;;28.51;41.38;97134.88;5036616;28;1249;-93
2021/07/29 12:45:15;;;;;;;;;;;;;;;28.64;40.98;97130.88;5017051;28;1409;-94
2021/07/29 12:47:42;;;;;;;;;;;;;;;28.76;40.56;97126.22;5019825;28;1414;-93
2021/07/29 12:50:07;;;;;;;;;;;;;;;28.55;41.28;97134.44;5038239;28;1899;-94
2021/07/29 12:52:32;;;;;;;;;;;;;;;28.53;41.23;97124.97;5041108;28;1255;-92
2021/07/29 12:55:00;;;;;;;;;;;;;;;28.44;41.38;97129.38;5009323;28;1291;-92